createdAt,value
2023-04-26T00:02:08.970Z,97834.66
2023-04-26T00:05:13.228Z,97732.09
2023-04-26T00:08:17.975Z,97675.09
2023-04-26T00:11:21.355Z,97841.75
2023-04-26T00:14:24.807Z,97974.31
2023-04-26T00:17:28.119Z,97861.72
2023-04-26T00:20:33.684Z,97851.09
2023-04-26T00:23:38.404Z,97862.59
2023-04-26T00:26:41.659Z,97802.16
2023-04-26T00:29:44.969Z,97902.66
2023-04-26T00:32:48.646Z,98055.59
2023-04-26T00:35:52.211Z,97711.75
2023-04-26T00:38:56.777Z,97794.97
2023-04-26T00:42:00.177Z,98019.75
2023-04-26T00:45:04.005Z,97875.94
2023-04-26T00:48:08.509Z,97785.16
2023-04-26T00:51:12.855Z,97974.41
2023-04-26T00:54:17.609Z,97753.06
2023-04-26T00:57:21.081Z,97820.41
2023-04-26T01:00:24.469Z,97783.25
2023-04-26T01:03:31.082Z,97882.53
2023-04-26T01:06:38.417Z,98002.19
2023-04-26T01:09:44.034Z,98025.94
2023-04-26T01:12:47.915Z,98034.88
2023-04-26T01:15:56.809Z,98037.28
2023-04-26T01:19:07.743Z,98048.19
2023-04-26T01:22:13.356Z,98037.75
2023-04-26T01:25:18.156Z,98044.19
2023-04-26T01:28:21.559Z,98050.06
2023-04-26T01:31:24.832Z,98045.69
2023-04-26T01:34:28.212Z,98040.50
2023-04-26T01:37:31.427Z,98022.34
2023-04-26T01:40:37.547Z,98043.34
2023-04-26T01:43:42.981Z,98054.38
2023-04-26T01:46:46.671Z,98055.88
2023-04-26T01:49:50.115Z,98034.66
2023-04-26T01:52:53.510Z,98052.22
2023-04-26T01:55:58.069Z,98058.22
2023-04-26T01:59:01.238Z,98048.63
2023-04-26T02:02:06.869Z,98053.97
2023-04-26T02:05:12.857Z,98059.06
2023-04-26T02:08:16.112Z,98066.78
2023-04-26T02:11:20.605Z,98064.03
2023-04-26T02:14:23.896Z,98066.59
2023-04-26T02:17:29.137Z,98067.00
2023-04-26T02:20:34.505Z,98065.25
2023-04-26T02:23:37.725Z,98062.75
2023-04-26T02:26:42.297Z,98072.47
2023-04-26T02:29:45.503Z,98051.16
2023-04-26T02:32:49.486Z,98067.06
2023-04-26T02:35:53.082Z,98055.97
2023-04-26T02:38:56.278Z,98065.16
2023-04-26T02:42:03.500Z,98068.22
2023-04-26T02:45:08.271Z,98049.41
2023-04-26T02:48:11.482Z,98058.00
2023-04-26T02:51:16.013Z,98060.66
2023-04-26T02:54:19.196Z,98061.63
2023-04-26T02:57:23.773Z,98060.16
2023-04-26T03:00:27.842Z,98071.16
2023-04-26T03:03:31.930Z,98053.69
2023-04-26T03:06:35.323Z,98072.19
2023-04-26T03:09:38.877Z,98076.38
2023-04-26T03:12:43.461Z,98068.97
2023-04-26T03:15:47.143Z,98051.13
2023-04-26T03:18:50.662Z,98068.31
2023-04-26T03:21:53.990Z,98072.22
2023-04-26T03:24:57.463Z,98078.41
2023-04-26T03:28:04.872Z,98078.31
2023-04-26T03:34:51.087Z,98072.13
2023-04-26T03:37:55.398Z,98016.19
2023-04-26T03:41:00.615Z,98084.72
2023-04-26T03:44:04.409Z,98086.72
2023-04-26T03:47:08.180Z,98093.69
2023-04-26T03:50:13.438Z,98098.63
2023-04-26T03:53:16.604Z,98090.09
2023-04-26T03:56:21.190Z,98087.03
2023-04-26T03:59:28.148Z,98027.91
2023-04-26T04:02:33.330Z,98049.91
2023-04-26T04:05:39.161Z,98098.91
2023-04-26T04:08:42.858Z,98097.91
2023-04-26T04:11:47.537Z,98080.75
2023-04-26T04:14:50.920Z,98110.81
2023-04-26T04:17:54.209Z,98112.50
2023-04-26T04:20:58.846Z,98085.88
2023-04-26T04:24:02.392Z,98107.81
2023-04-26T04:27:05.968Z,98096.31
2023-04-26T04:30:12.967Z,98111.34
2023-04-26T04:33:17.645Z,98113.38
2023-04-26T04:36:22.862Z,98108.72
2023-04-26T04:39:25.994Z,98124.25
2023-04-26T04:42:29.504Z,98129.19
2023-04-26T04:45:34.142Z,98128.50
2023-04-26T04:48:38.784Z,98124.53
2023-04-26T04:51:43.412Z,98137.97
2023-04-26T04:54:47.554Z,98142.94
2023-04-26T04:57:51.455Z,98105.72
2023-04-26T05:00:56.927Z,98076.16
2023-04-26T05:04:05.523Z,98099.63
2023-04-26T05:07:11.327Z,98122.13
2023-04-26T05:10:16.244Z,98140.81
2023-04-26T05:13:19.673Z,98145.75
2023-04-26T05:16:23.101Z,98123.19
2023-04-26T05:19:26.765Z,98128.59
2023-04-26T05:22:31.534Z,98150.75
2023-04-26T05:25:38.398Z,98135.28
2023-04-26T05:29:01.574Z,98146.19
2023-04-26T05:32:19.672Z,98155.38
2023-04-26T05:35:31.339Z,98140.00
2023-04-26T05:38:37.998Z,98154.13
2023-04-26T05:41:41.378Z,98129.22
2023-04-26T05:44:45.240Z,98161.47
2023-04-26T05:47:49.177Z,98166.41
2023-04-26T05:50:53.333Z,98120.63
2023-04-26T05:53:58.053Z,98162.19
2023-04-26T05:57:02.092Z,98162.41
2023-04-26T06:00:09.397Z,98158.28
2023-04-26T06:03:21.399Z,98151.31
2023-04-26T06:06:24.973Z,98165.88
2023-04-26T06:09:32.315Z,98042.00
2023-04-26T06:12:35.633Z,98131.31
2023-04-26T06:15:38.921Z,98129.06
2023-04-26T06:18:42.163Z,98129.44
2023-04-26T06:21:45.488Z,98133.56
2023-04-26T06:24:50.285Z,98093.94
2023-04-26T06:27:53.915Z,98175.41
2023-04-26T06:30:57.355Z,98142.19
2023-04-26T06:34:03.154Z,98157.28
2023-04-26T06:37:06.785Z,98157.78
2023-04-26T06:40:15.916Z,98176.78
2023-04-26T06:43:19.598Z,98167.22
2023-04-26T06:46:32.717Z,98164.88
2023-04-26T06:49:36.284Z,98147.25
2023-04-26T06:52:39.823Z,98163.06
2023-04-26T06:55:44.691Z,98158.66
2023-04-26T06:59:01.391Z,98163.91
2023-04-26T07:02:04.948Z,98027.59
2023-04-26T07:05:11.467Z,98167.16
2023-04-26T07:08:14.888Z,98165.25
2023-04-26T07:11:21.080Z,98155.03
2023-04-26T07:14:25.030Z,98168.34
2023-04-26T07:17:28.269Z,98164.06
2023-04-26T07:20:31.606Z,98173.44
2023-04-26T07:23:34.896Z,98164.22
2023-04-26T07:26:39.598Z,98182.00
2023-04-26T07:29:42.755Z,98170.38
2023-04-26T07:32:45.973Z,98110.25
2023-04-26T07:35:55.467Z,98168.47
2023-04-26T07:38:58.653Z,98138.47
2023-04-26T07:42:03.907Z,98175.31
2023-04-26T07:45:08.516Z,98131.13
2023-04-26T07:48:11.991Z,98173.94
2023-04-26T07:51:15.288Z,98168.50
2023-04-26T07:54:18.569Z,98169.06
2023-04-26T07:57:23.260Z,98170.72
2023-04-26T08:00:26.768Z,98174.88
2023-04-26T08:03:30.232Z,98166.84
2023-04-26T08:06:33.767Z,98162.09
2023-04-26T08:09:36.960Z,98139.03
2023-04-26T08:12:41.613Z,98109.88
2023-04-26T08:15:44.819Z,98169.78
2023-04-26T08:18:48.083Z,98152.47
2023-04-26T08:21:51.356Z,98173.13
2023-04-26T08:24:56.798Z,98156.66
2023-04-26T08:28:01.787Z,98149.91
2023-04-26T08:31:05.482Z,98080.69
2023-04-26T08:34:11.173Z,98164.59
2023-04-26T08:37:15.205Z,98169.78
2023-04-26T08:40:24.154Z,98177.81
2023-04-26T08:43:29.533Z,98115.72
2023-04-26T08:46:37.950Z,98162.22
2023-04-26T08:49:42.800Z,98147.00
2023-04-26T08:52:48.314Z,98174.66
2023-04-26T08:55:51.957Z,98168.47
2023-04-26T08:58:56.945Z,98174.50
2023-04-26T09:02:02.987Z,98166.03
2023-04-26T09:05:12.782Z,98164.53
2023-04-26T09:08:18.316Z,98157.78
2023-04-26T09:11:22.374Z,98140.16
2023-04-26T09:14:27.589Z,98165.41
2023-04-26T09:17:32.508Z,98159.66
2023-04-26T09:20:36.555Z,98163.25
2023-04-26T09:23:58.004Z,98175.97
2023-04-26T09:27:05.070Z,97991.56
2023-04-26T09:30:12.431Z,97921.75
2023-04-26T09:34:50.902Z,98060.47
2023-04-26T09:37:59.544Z,97947.81
2023-04-26T09:41:04.894Z,97796.13
2023-04-26T09:44:08.189Z,97932.63
2023-04-26T09:47:12.890Z,97798.28
2023-04-26T09:50:27.290Z,97778.97
2023-04-26T09:53:34.274Z,97852.19
2023-04-26T09:56:37.738Z,97922.34
2023-04-26T09:59:43.308Z,97826.44
2023-04-26T10:02:48.331Z,97984.78
2023-04-26T10:05:53.801Z,98131.72
2023-04-26T10:08:58.187Z,98145.84
2023-04-26T10:12:03.404Z,97893.03
2023-04-26T10:15:09.341Z,98120.59
2023-04-26T10:18:12.991Z,98096.00
2023-04-26T10:21:27.283Z,98126.94
2023-04-26T10:24:30.584Z,98125.00
2023-04-26T10:27:53.297Z,98135.56
2023-04-26T10:30:57.573Z,98104.94
2023-04-26T10:34:19.904Z,98093.53
2023-04-26T10:37:24.538Z,98141.28
2023-04-26T10:40:29.812Z,98102.78
2023-04-26T10:43:33.036Z,98094.47
2023-04-26T10:46:41.242Z,98112.16
2023-04-26T10:49:48.940Z,98085.13
2023-04-26T10:53:12.509Z,98126.19
2023-04-26T10:56:52.040Z,98117.03
2023-04-26T11:00:16.488Z,98117.50
2023-04-26T11:03:19.973Z,98107.03
2023-04-26T11:06:25.429Z,98093.22
2023-04-26T11:09:37.767Z,98111.09
2023-04-26T11:12:43.385Z,98117.03
2023-04-26T11:15:48.743Z,98110.50
2023-04-26T11:18:56.372Z,98070.69
2023-04-26T11:22:00.800Z,98039.94
2023-04-26T11:25:06.182Z,98028.09
2023-04-26T11:28:09.427Z,98065.53
2023-04-26T11:31:14.685Z,98014.84
2023-04-26T11:34:17.989Z,98099.06
2023-04-26T11:37:21.259Z,98086.53
2023-04-26T11:40:29.201Z,98095.63
2023-04-26T11:43:36.441Z,98093.94
2023-04-26T11:46:41.896Z,98078.38
2023-04-26T11:49:45.876Z,98059.97
2023-04-26T11:52:49.211Z,98097.25
2023-04-26T11:55:53.852Z,98052.84
2023-04-26T11:58:58.253Z,98068.13
2023-04-26T12:02:07.352Z,98066.34
2023-04-26T12:05:11.364Z,98050.16
2023-04-26T12:08:15.117Z,98067.13
2023-04-26T12:11:19.893Z,98078.47
2023-04-26T12:14:23.179Z,98081.84
2023-04-26T12:17:29.379Z,98056.50
2023-04-26T12:20:35.637Z,98072.81
2023-04-26T12:23:40.986Z,97846.00
2023-04-26T12:26:46.038Z,98059.66
2023-04-26T12:29:49.381Z,98060.34
2023-04-26T12:32:52.676Z,98019.28
2023-04-26T12:35:57.604Z,98066.41
2023-04-26T12:39:03.708Z,98027.94
2023-04-26T12:42:08.429Z,98064.31
2023-04-26T12:45:12.414Z,98046.38
2023-04-26T12:48:16.076Z,98052.84
2023-04-26T12:51:19.645Z,98061.09
2023-04-26T12:54:23.174Z,98058.75
2023-04-26T12:57:27.922Z,98044.78
2023-04-26T13:00:31.345Z,98023.50
2023-04-26T13:03:34.742Z,98050.66
2023-04-26T13:06:38.196Z,98057.09
2023-04-26T13:09:41.705Z,98046.63
2023-04-26T13:12:46.418Z,98039.00
2023-04-26T13:15:49.936Z,98046.69
2023-04-26T13:18:53.151Z,97989.78
2023-04-26T13:21:56.804Z,98030.13
2023-04-26T13:25:00.160Z,98038.88
2023-04-26T13:28:05.132Z,98029.03
2023-04-26T13:31:08.296Z,98053.22
2023-04-26T13:34:13.115Z,98051.34
2023-04-26T13:37:17.276Z,98042.94
2023-04-26T13:40:22.114Z,97994.91
2023-04-26T13:43:27.049Z,98033.69
2023-04-26T13:46:30.554Z,98029.91
2023-04-26T13:49:33.822Z,98026.91
2023-04-26T13:52:37.197Z,98042.81
2023-04-26T13:55:40.363Z,98042.63
2023-04-26T13:58:44.925Z,98029.16
2023-04-26T14:01:48.293Z,98035.41
2023-04-26T14:04:51.998Z,98031.34
2023-04-26T14:07:55.769Z,98037.19
2023-04-26T14:10:59.110Z,98040.34
2023-04-26T14:14:03.642Z,98044.72
2023-04-26T14:17:07.059Z,98027.06
2023-04-26T14:20:11.832Z,98050.09
2023-04-26T14:23:15.544Z,98037.97
2023-04-26T14:26:18.829Z,97999.53
2023-04-26T14:29:23.473Z,98045.56
2023-04-26T14:32:26.983Z,98023.59
2023-04-26T14:35:30.346Z,98032.50
2023-04-26T14:38:33.831Z,98044.03
2023-04-26T14:41:37.343Z,98044.63
2023-04-26T14:44:42.344Z,98037.31
2023-04-26T14:47:45.659Z,98029.97
2023-04-26T14:50:48.849Z,98027.34
2023-04-26T14:53:52.258Z,98027.34
2023-04-26T14:56:55.969Z,97969.50
2023-04-26T15:00:07.156Z,98027.94
2023-04-26T15:03:11.016Z,97996.34
2023-04-26T15:06:14.851Z,98021.28
2023-04-26T15:09:18.387Z,98021.09
2023-04-26T15:12:21.851Z,98022.59
2023-04-26T15:15:26.438Z,98013.81
2023-04-26T15:18:29.665Z,97999.53
2023-04-26T15:21:34.369Z,98006.66
2023-04-26T15:24:37.731Z,97902.03
2023-04-26T15:27:41.328Z,97940.13
2023-04-26T15:34:50.608Z,98021.28
2023-04-26T15:37:54.840Z,98025.13
2023-04-26T15:40:58.141Z,98020.84
2023-04-26T15:44:01.494Z,98025.19
2023-04-26T15:47:04.900Z,97999.78
2023-04-26T15:50:14.016Z,98014.94
2023-04-26T15:53:17.411Z,98018.81
2023-04-26T15:56:21.008Z,98015.00
2023-04-26T15:59:24.213Z,97964.47
2023-04-26T16:02:27.657Z,97916.41
2023-04-26T16:05:32.568Z,98019.22
2023-04-26T16:08:40.405Z,97998.56
2023-04-26T16:11:44.062Z,98017.72
2023-04-26T16:14:48.852Z,98015.97
2023-04-26T16:17:52.137Z,97969.78
2023-04-26T16:21:04.442Z,97984.38
2023-04-26T16:24:09.008Z,97999.25
2023-04-26T16:27:12.706Z,97997.03
2023-04-26T16:30:16.109Z,97942.31
2023-04-26T16:33:22.111Z,97993.28
2023-04-26T16:36:28.478Z,97981.44
2023-04-26T16:39:31.918Z,98002.34
2023-04-26T16:42:35.206Z,98002.22
2023-04-26T16:45:38.356Z,97998.78
2023-04-26T16:48:41.558Z,98005.44
2023-04-26T16:51:51.372Z,97978.91
2023-04-26T16:54:54.998Z,98002.47
2023-04-26T16:57:58.319Z,98003.34
2023-04-26T17:01:01.985Z,97978.16
2023-04-26T17:04:05.411Z,98007.41
2023-04-26T17:07:10.749Z,97988.53
2023-04-26T17:10:13.952Z,98005.78
2023-04-26T17:13:17.413Z,98008.31
2023-04-26T17:16:20.944Z,98004.47
2023-04-26T17:19:24.386Z,98008.72
2023-04-26T17:22:29.256Z,98006.63
2023-04-26T17:25:32.611Z,98014.84
2023-04-26T17:28:37.662Z,98012.06
2023-04-26T17:31:40.987Z,98016.25
2023-04-26T17:34:45.553Z,97999.69
2023-04-26T17:37:50.673Z,98019.25
2023-04-26T17:40:54.550Z,97986.03
2023-04-26T17:43:57.690Z,98013.81
2023-04-26T17:47:01.249Z,98027.38
2023-04-26T17:50:11.680Z,97987.06
2023-04-26T17:53:16.563Z,98034.25
2023-04-26T17:56:19.951Z,98019.28
2023-04-26T17:59:23.120Z,98040.69
2023-04-26T18:02:26.460Z,98036.50
2023-04-26T18:05:30.096Z,98040.34
2023-04-26T18:08:34.749Z,98041.03
2023-04-26T18:11:37.969Z,98048.47
2023-04-26T18:14:44.624Z,98046.88
2023-04-26T18:17:48.147Z,98044.56
2023-04-26T18:20:51.403Z,98001.72
2023-04-26T18:23:56.250Z,98061.81
2023-04-26T18:26:59.450Z,98065.47
2023-04-26T18:30:02.670Z,98072.25
2023-04-26T18:33:06.264Z,98068.03
2023-04-26T18:36:09.815Z,98062.19
2023-04-26T18:39:14.781Z,98069.06
2023-04-26T18:42:18.076Z,98006.84
2023-04-26T18:45:21.718Z,98060.03
2023-04-26T18:48:24.884Z,98043.78
2023-04-26T18:51:28.094Z,98059.13
2023-04-26T18:54:33.122Z,98074.88
2023-04-26T18:57:36.547Z,98070.75
2023-04-26T19:00:39.787Z,98075.16
2023-04-26T19:03:43.226Z,98075.91
2023-04-26T19:06:46.637Z,98088.53
2023-04-26T19:09:54.455Z,98091.66
2023-04-26T19:12:58.278Z,98098.72
2023-04-26T19:16:04.175Z,98089.38
2023-04-26T19:19:07.651Z,98100.09
2023-04-26T19:22:10.909Z,98099.31
2023-04-26T19:25:20.335Z,98101.31
2023-04-26T19:28:23.489Z,98105.56
2023-04-26T19:31:26.727Z,98109.75
2023-04-26T19:34:31.631Z,98100.19
2023-04-26T19:37:34.994Z,98113.13
2023-04-26T19:40:39.868Z,98107.19
2023-04-26T19:43:43.225Z,98043.94
2023-04-26T19:46:46.633Z,98113.63
2023-04-26T19:49:51.538Z,98099.47
2023-04-26T19:52:54.719Z,98065.63
2023-04-26T19:55:59.349Z,98112.72
2023-04-26T19:59:02.657Z,98108.66
2023-04-26T20:02:06.764Z,98098.50
2023-04-26T20:05:12.569Z,98113.63
2023-04-26T20:08:17.180Z,98113.47
2023-04-26T20:11:28.437Z,98092.00
2023-04-26T20:14:31.944Z,98126.94
2023-04-26T20:17:35.416Z,98124.75
2023-04-26T20:20:38.544Z,98022.28
2023-04-26T20:23:42.736Z,98130.97
2023-04-26T20:26:47.673Z,98130.63
2023-04-26T20:29:52.579Z,98064.69
2023-04-26T20:32:56.586Z,97766.63
2023-04-26T20:36:00.261Z,98166.22
2023-04-26T20:39:03.967Z,98140.44
2023-04-26T20:42:08.712Z,98142.47
2023-04-26T20:45:15.891Z,98116.59
2023-04-26T20:48:19.586Z,98145.44
2023-04-26T20:51:23.246Z,98145.03
2023-04-26T20:54:26.672Z,98150.81
2023-04-26T20:57:31.356Z,98128.38
2023-04-26T21:00:34.591Z,98153.44
2023-04-26T21:03:39.234Z,98144.06
2023-04-26T21:06:42.797Z,98162.50
2023-04-26T21:09:46.913Z,98143.03
2023-04-26T21:12:51.830Z,98145.63
2023-04-26T21:15:55.035Z,98157.28
2023-04-26T21:18:58.195Z,98152.03
2023-04-26T21:22:01.643Z,98151.16
2023-04-26T21:25:05.675Z,98160.59
2023-04-26T21:28:10.243Z,98150.44
2023-04-26T21:34:50.508Z,98157.00
2023-04-26T21:37:53.672Z,98140.91
2023-04-26T21:40:57.127Z,98157.00
2023-04-26T21:44:00.371Z,98159.41
2023-04-26T21:47:03.665Z,98137.91
2023-04-26T21:50:14.182Z,98160.84
2023-04-26T21:53:17.663Z,98162.09
2023-04-26T21:56:20.862Z,98167.94
2023-04-26T21:59:24.236Z,98151.25
2023-04-26T22:02:27.711Z,98147.69
2023-04-26T22:05:32.492Z,98157.38
2023-04-26T22:08:36.037Z,98143.91
2023-04-26T22:11:40.148Z,98161.66
2023-04-26T22:14:43.313Z,98153.13
2023-04-26T22:17:46.555Z,98180.63
2023-04-26T22:20:51.467Z,98166.91
2023-04-26T22:23:54.893Z,98177.84
2023-04-26T22:26:58.161Z,98168.53
2023-04-26T22:30:12.470Z,98175.28
2023-04-26T22:33:24.066Z,98166.13
2023-04-26T22:36:28.588Z,98161.19
2023-04-26T22:39:31.805Z,98176.31
2023-04-26T22:42:34.973Z,98117.34
2023-04-26T22:45:38.199Z,98193.91
2023-04-26T22:48:41.448Z,98192.38
2023-04-26T22:51:57.177Z,98193.28
2023-04-26T22:55:05.777Z,98192.56
2023-04-26T22:58:08.996Z,98199.53
2023-04-26T23:01:12.220Z,98206.31
2023-04-26T23:04:15.419Z,98199.66
2023-04-26T23:07:19.977Z,98195.84
2023-04-26T23:10:23.505Z,98201.69
2023-04-26T23:13:26.947Z,98115.59
2023-04-26T23:16:30.150Z,98204.34
2023-04-26T23:19:33.747Z,98181.78
2023-04-26T23:22:38.390Z,98180.94
2023-04-26T23:25:42.173Z,98202.97
2023-04-26T23:28:45.713Z,98209.13
2023-04-26T23:31:49.048Z,98206.47
2023-04-26T23:34:52.260Z,98225.81
2023-04-26T23:37:56.897Z,98203.38
2023-04-26T23:41:00.151Z,98147.84
2023-04-26T23:44:03.439Z,98233.81
2023-04-26T23:47:06.714Z,98227.78
2023-04-26T23:50:12.673Z,98231.44
2023-04-26T23:53:17.560Z,98227.44
2023-04-26T23:56:20.946Z,98223.75
2023-04-26T23:59:24.173Z,98069.53
